Check out our new PWSWeather beta!
PWSweather.com
Personal Weather Stations
Station Observations
PICKERING
North Yorkshire, PickeringGB

North YorkshirePickeringGB

Lat: 54.2494, Lon: -0.7725

Elevation: 192

Station Type: Oregon Scientific WMR100

High Low Average
Temperature 80.6°F27.0°C 58.5°F14.7°C 65.7°F18.7°C
Dew Point 69.8°F21.0°C 50.0°F10.0°C 57.5°F14.2°C
Winds 12.1 mph 19.5 kmh 4.0 mph 6.4 kmh 7.0 mph SE11.3 kmh SE
Wind Gusts 18.6 mph29.9 kmh 6.3 mph10.1 kmh 12.0 mph19.3 kmh
Humidity 88% 58% 75%
Pressure 29.74 in1007.1 mb 29.24 in990.2 mb -
Precipitation 0.53 in13.5 mm - -
Hour Temp Dew Point Humidity Winds Wind Gusts Pressure Precip Precip Rate Daily Precip Total
12:00 AM 60.1°F15.6°C 51.8°F11.0°C 71% 5.4 mph E8.7 kmh E 9.8 mph15.8 kmh 29.74 in1007.1 mb 0.00 in0.0 mm 0.00 in0.0 mm 0.00 in0.0 mm
12:05 AM 60.1°F15.6°C 51.8°F11.0°C 71% 5.0 mph E8.0 kmh E 9.8 mph15.8 kmh 29.74 in1007.1 mb 0.00 in0.0 mm 0.00 in0.0 mm 0.00 in0.0 mm
12:10 AM 60.1°F15.6°C 51.8°F11.0°C 71% 4.8 mph ENE7.7 kmh ENE 7.2 mph11.6 kmh 29.74 in1007.1 mb 0.00 in0.0 mm 0.00 in0.0 mm 0.00 in0.0 mm
12:15 AM 60.1°F15.6°C 50.0°F10.0°C 70% 4.6 mph ENE7.4 kmh ENE 7.2 mph11.6 kmh 29.74 in1007.1 mb 0.00 in0.0 mm 0.00 in0.0 mm 0.00 in0.0 mm
12:20 AM 60.3°F15.7°C 50.0°F10.0°C 70% 5.0 mph NE8.0 kmh NE 7.8 mph12.6 kmh 29.74 in1007.1 mb 0.00 in0.0 mm 0.00 in0.0 mm 0.00 in0.0 mm
12:25 AM 60.3°F15.7°C 50.0°F10.0°C 70% 5.4 mph NE8.7 kmh NE 8.1 mph13.0 kmh 29.71 in1006.1 mb 0.00 in0.0 mm 0.00 in0.0 mm 0.00 in0.0 mm
12:30 AM 60.3°F15.7°C 50.0°F10.0°C 69% 6.5 mph ENE10.5 kmh ENE 9.6 mph15.4 kmh 29.71 in1006.1 mb 0.00 in0.0 mm 0.00 in0.0 mm 0.00 in0.0 mm
12:35 AM 60.3°F15.7°C 50.0°F10.0°C 69% 6.2 mph ENE10.0 kmh ENE 9.6 mph15.4 kmh 29.71 in1006.1 mb 0.00 in0.0 mm 0.00 in0.0 mm 0.00 in0.0 mm
12:40 AM 60.3°F15.7°C 50.0°F10.0°C 69% 5.2 mph E8.4 kmh E 9.6 mph15.4 kmh 29.71 in1006.1 mb 0.00 in0.0 mm 0.00 in0.0 mm 0.00 in0.0 mm
12:45 AM 60.3°F15.7°C 50.0°F10.0°C 69% 5.0 mph E8.0 kmh E 7.8 mph12.6 kmh 29.71 in1006.1 mb 0.00 in0.0 mm 0.00 in0.0 mm 0.00 in0.0 mm
12:50 AM 60.4°F15.8°C 50.0°F10.0°C 69% 5.7 mph E9.2 kmh E 9.8 mph15.8 kmh 29.71 in1006.1 mb 0.00 in0.0 mm 0.00 in0.0 mm 0.00 in0.0 mm
12:55 AM 60.4°F15.8°C 50.0°F10.0°C 69% 6.7 mph E10.8 kmh E 11.9 mph19.2 kmh 29.71 in1006.1 mb 0.00 in0.0 mm 0.00 in0.0 mm 0.00 in0.0 mm
01:00 AM 60.6°F15.9°C 50.0°F10.0°C 69% 7.0 mph E11.3 kmh E 11.9 mph19.2 kmh 29.71 in1006.1 mb 0.00 in0.0 mm 0.00 in0.0 mm 0.00 in0.0 mm
01:05 AM 60.6°F15.9°C 50.0°F10.0°C 69% 6.5 mph ESE10.5 kmh ESE 10.1 mph16.3 kmh 29.71 in1006.1 mb 0.00 in0.0 mm 0.00 in0.0 mm 0.00 in0.0 mm
01:10 AM 60.6°F15.9°C 50.0°F10.0°C 69% 7.0 mph E11.3 kmh E 10.5 mph16.9 kmh 29.71 in1006.1 mb 0.00 in0.0 mm 0.00 in0.0 mm 0.00 in0.0 mm
01:15 AM 60.8°F16.0°C 50.0°F10.0°C 69% 7.0 mph E11.3 kmh E 10.5 mph16.9 kmh 29.71 in1006.1 mb 0.00 in0.0 mm 0.00 in0.0 mm 0.00 in0.0 mm
01:20 AM 60.6°F15.9°C 50.0°F10.0°C 69% 6.7 mph E10.8 kmh E 10.5 mph16.9 kmh 29.71 in1006.1 mb 0.00 in0.0 mm 0.00 in0.0 mm 0.00 in0.0 mm
01:25 AM 60.6°F15.9°C 50.0°F10.0°C 69% 8.0 mph E12.9 kmh E 12.3 mph19.8 kmh 29.68 in1005.1 mb 0.00 in0.0 mm 0.00 in0.0 mm 0.00 in0.0 mm
01:30 AM 60.6°F15.9°C 50.0°F10.0°C 69% 8.0 mph E12.9 kmh E 12.3 mph19.8 kmh 29.68 in1005.1 mb 0.00 in0.0 mm 0.00 in0.0 mm 0.00 in0.0 mm
01:35 AM 60.8°F16.0°C 50.0°F10.0°C 69% 8.0 mph E12.9 kmh E 10.7 mph17.2 kmh 29.68 in1005.1 mb 0.00 in0.0 mm 0.00 in0.0 mm 0.00 in0.0 mm
01:40 AM 60.8°F16.0°C 50.0°F10.0°C 69% 9.3 mph E15.0 kmh E 10.7 mph17.2 kmh 29.68 in1005.1 mb 0.00 in0.0 mm 0.00 in0.0 mm 0.00 in0.0 mm
01:45 AM 60.8°F16.0°C 50.0°F10.0°C 69% 8.4 mph E13.5 kmh E 10.5 mph16.9 kmh 29.68 in1005.1 mb 0.00 in0.0 mm 0.00 in0.0 mm 0.00 in0.0 mm
01:50 AM 60.8°F16.0°C 50.0°F10.0°C 69% 7.6 mph E12.2 kmh E 10.5 mph16.9 kmh 29.68 in1005.1 mb 0.00 in0.0 mm 0.00 in0.0 mm 0.00 in0.0 mm
01:55 AM 61.0°F16.1°C 50.0°F10.0°C 69% 7.8 mph E12.6 kmh E 10.7 mph17.2 kmh 29.68 in1005.1 mb 0.00 in0.0 mm 0.00 in0.0 mm 0.00 in0.0 mm
02:00 AM 61.0°F16.1°C 50.0°F10.0°C 69% 8.5 mph E13.7 kmh E 11.0 mph17.7 kmh 29.68 in1005.1 mb 0.00 in0.0 mm 0.00 in0.0 mm 0.00 in0.0 mm
02:05 AM 61.0°F16.1°C 51.8°F11.0°C 70% 9.6 mph ESE15.4 kmh ESE 11.0 mph17.7 kmh 29.68 in1005.1 mb 0.00 in0.0 mm 0.00 in0.0 mm 0.00 in0.0 mm
02:10 AM 61.2°F16.2°C 51.8°F11.0°C 70% 9.1 mph ESE14.6 kmh ESE 11.0 mph17.7 kmh 29.68 in1005.1 mb 0.00 in0.0 mm 0.00 in0.0 mm 0.00 in0.0 mm
02:15 AM 61.2°F16.2°C 51.8°F11.0°C 70% 7.6 mph E12.2 kmh E 12.3 mph19.8 kmh 29.68 in1005.1 mb 0.00 in0.0 mm 0.00 in0.0 mm 0.00 in0.0 mm
02:20 AM 61.2°F16.2°C 51.8°F11.0°C 70% 7.7 mph E12.4 kmh E 13.2 mph21.2 kmh 29.68 in1005.1 mb 0.00 in0.0 mm 0.00 in0.0 mm 0.00 in0.0 mm
02:25 AM 61.2°F16.2°C 51.8°F11.0°C 70% 7.7 mph E12.4 kmh E 13.2 mph21.2 kmh 29.65 in1004.1 mb 0.00 in0.0 mm 0.00 in0.0 mm 0.00 in0.0 mm
02:30 AM 61.2°F16.2°C 51.8°F11.0°C 70% 8.1 mph E13.0 kmh E 11.0 mph17.7 kmh 29.65 in1004.1 mb 0.00 in0.0 mm 0.00 in0.0 mm 0.00 in0.0 mm
02:35 AM 61.3°F16.3°C 51.8°F11.0°C 71% 9.7 mph E15.6 kmh E 13.0 mph20.9 kmh 29.65 in1004.1 mb 0.00 in0.0 mm 0.00 in0.0 mm 0.00 in0.0 mm
02:40 AM 61.3°F16.3°C 51.8°F11.0°C 71% 10.6 mph E17.1 kmh E 13.0 mph20.9 kmh 29.65 in1004.1 mb 0.00 in0.0 mm 0.00 in0.0 mm 0.00 in0.0 mm
02:45 AM 61.2°F16.2°C 53.6°F12.0°C 72% 9.0 mph E14.5 kmh E 12.1 mph19.5 kmh 29.65 in1004.1 mb 0.00 in0.0 mm 0.00 in0.0 mm 0.00 in0.0 mm
02:50 AM 61.0°F16.1°C 51.8°F11.0°C 73% 8.0 mph E12.9 kmh E 11.2 mph18.0 kmh 29.65 in1004.1 mb 0.00 in0.0 mm 0.00 in0.0 mm 0.00 in0.0 mm
02:55 AM 60.6°F15.9°C 53.6°F12.0°C 74% 8.5 mph E13.7 kmh E 11.0 mph17.7 kmh 29.65 in1004.1 mb 0.00 in0.0 mm 0.00 in0.0 mm 0.00 in0.0 mm
03:00 AM 60.4°F15.8°C 53.6°F12.0°C 75% 8.3 mph E13.4 kmh E 11.0 mph17.7 kmh 29.65 in1004.1 mb 0.00 in0.0 mm 0.00 in0.0 mm 0.00 in0.0 mm
03:05 AM 60.3°F15.7°C 53.6°F12.0°C 75% 7.1 mph E11.4 kmh E 11.0 mph17.7 kmh 29.65 in1004.1 mb 0.00 in0.0 mm 0.00 in0.0 mm 0.00 in0.0 mm
03:10 AM 60.1°F15.6°C 53.6°F12.0°C 76% 7.1 mph E11.4 kmh E 10.3 mph16.6 kmh 29.62 in1003.0 mb 0.06 in1.5 mm 0.72 in18.3 mm 0.06 in1.5 mm
03:15 AM 60.1°F15.6°C 53.6°F12.0°C 76% 8.2 mph E13.2 kmh E 14.8 mph23.8 kmh 29.62 in1003.0 mb 0.06 in1.5 mm 0.00 in0.0 mm 0.06 in1.5 mm
03:20 AM 59.9°F15.5°C 53.6°F12.0°C 76% 9.9 mph E15.9 kmh E 14.8 mph23.8 kmh 29.62 in1003.0 mb 0.06 in1.5 mm 0.00 in0.0 mm 0.06 in1.5 mm
03:25 AM 59.9°F15.5°C 53.6°F12.0°C 77% 9.1 mph E14.6 kmh E 14.8 mph23.8 kmh 29.62 in1003.0 mb 0.06 in1.5 mm 0.00 in0.0 mm 0.06 in1.5 mm
03:30 AM 59.9°F15.5°C 53.6°F12.0°C 77% 8.3 mph E13.4 kmh E 12.1 mph19.5 kmh 29.62 in1003.0 mb 0.06 in1.5 mm 0.00 in0.0 mm 0.06 in1.5 mm
03:35 AM 59.9°F15.5°C 53.6°F12.0°C 77% 8.4 mph E13.5 kmh E 12.1 mph19.5 kmh 29.62 in1003.0 mb 0.06 in1.5 mm 0.00 in0.0 mm 0.06 in1.5 mm
03:40 AM 59.9°F15.5°C 53.6°F12.0°C 78% 7.7 mph E12.4 kmh E 12.1 mph19.5 kmh 29.62 in1003.0 mb 0.06 in1.5 mm 0.00 in0.0 mm 0.06 in1.5 mm
03:45 AM 59.9°F15.5°C 53.6°F12.0°C 78% 8.0 mph E12.9 kmh E 12.5 mph20.1 kmh 29.62 in1003.0 mb 0.06 in1.5 mm 0.00 in0.0 mm 0.06 in1.5 mm
03:50 AM 59.9°F15.5°C 53.6°F12.0°C 79% 7.3 mph E11.7 kmh E 12.5 mph20.1 kmh 29.62 in1003.0 mb 0.06 in1.5 mm 0.00 in0.0 mm 0.06 in1.5 mm
03:55 AM 59.9°F15.5°C 53.6°F12.0°C 79% 6.0 mph E9.7 kmh E 9.6 mph15.4 kmh 29.62 in1003.0 mb 0.13 in3.3 mm 0.84 in21.3 mm 0.13 in3.3 mm
04:00 AM 59.7°F15.4°C 53.6°F12.0°C 79% 4.8 mph E7.7 kmh E 8.1 mph13.0 kmh 29.62 in1003.0 mb 0.13 in3.3 mm 0.00 in0.0 mm 0.13 in3.3 mm
04:05 AM 59.5°F15.3°C 53.6°F12.0°C 80% 7.0 mph SE11.3 kmh SE 16.3 mph26.2 kmh 29.62 in1003.0 mb 0.17 in4.3 mm 0.48 in12.2 mm 0.17 in4.3 mm
04:10 AM 59.5°F15.3°C 53.6°F12.0°C 79% 8.2 mph SE13.2 kmh SE 16.3 mph26.2 kmh 29.62 in1003.0 mb 0.18 in4.6 mm 0.12 in3.0 mm 0.24 in6.1 mm
04:15 AM 59.5°F15.3°C 53.6°F12.0°C 79% 7.1 mph ESE11.4 kmh ESE 9.8 mph15.8 kmh 29.62 in1003.0 mb 0.18 in4.6 mm 0.00 in0.0 mm 0.24 in6.1 mm
04:20 AM 59.5°F15.3°C 53.6°F12.0°C 80% 7.9 mph ESE12.7 kmh ESE 11.0 mph17.7 kmh 29.62 in1003.0 mb 0.24 in6.1 mm 0.72 in18.3 mm 0.29 in7.4 mm
04:25 AM 59.5°F15.3°C 53.6°F12.0°C 80% 7.6 mph ESE12.2 kmh ESE 11.0 mph17.7 kmh 29.59 in1002.0 mb 0.24 in6.1 mm 0.00 in0.0 mm 0.29 in7.4 mm
04:30 AM 59.4°F15.2°C 53.6°F12.0°C 80% 6.2 mph E10.0 kmh E 9.8 mph15.8 kmh 29.59 in1002.0 mb 0.24 in6.1 mm 0.00 in0.0 mm 0.29 in7.4 mm
04:35 AM 59.4°F15.2°C 53.6°F12.0°C 80% 6.7 mph E10.8 kmh E 10.3 mph16.6 kmh 29.59 in1002.0 mb 0.24 in6.1 mm 0.00 in0.0 mm 0.29 in7.4 mm
04:40 AM 59.4°F15.2°C 53.6°F12.0°C 80% 8.1 mph E13.0 kmh E 13.4 mph21.6 kmh 29.59 in1002.0 mb 0.24 in6.1 mm 0.00 in0.0 mm 0.29 in7.4 mm
04:45 AM 59.4°F15.2°C 53.6°F12.0°C 80% 8.0 mph E12.9 kmh E 13.4 mph21.6 kmh 29.59 in1002.0 mb 0.24 in6.1 mm 0.00 in0.0 mm 0.29 in7.4 mm
04:50 AM 59.4°F15.2°C 53.6°F12.0°C 80% 7.1 mph E11.4 kmh E 13.9 mph22.4 kmh 29.59 in1002.0 mb 0.24 in6.1 mm 0.00 in0.0 mm 0.29 in7.4 mm
04:55 AM 59.4°F15.2°C 53.6°F12.0°C 80% 7.4 mph E11.9 kmh E 13.9 mph22.4 kmh 29.56 in1001.0 mb 0.17 in4.3 mm 0.00 in0.0 mm 0.29 in7.4 mm
05:00 AM 59.2°F15.1°C 53.6°F12.0°C 80% 7.2 mph E11.6 kmh E 9.8 mph15.8 kmh 29.56 in1001.0 mb 0.17 in4.3 mm 0.00 in0.0 mm 0.29 in7.4 mm
05:05 AM 59.2°F15.1°C 53.6°F12.0°C 80% 7.2 mph E11.6 kmh E 10.7 mph17.2 kmh 29.56 in1001.0 mb 0.13 in3.3 mm 0.00 in0.0 mm 0.29 in7.4 mm
05:10 AM 59.2°F15.1°C 53.6°F12.0°C 80% 7.1 mph E11.4 kmh E 10.7 mph17.2 kmh 29.56 in1001.0 mb 0.06 in1.5 mm 0.00 in0.0 mm 0.29 in7.4 mm
05:15 AM 59.0°F15.0°C 53.6°F12.0°C 80% 7.0 mph E11.3 kmh E 9.2 mph14.8 kmh 29.56 in1001.0 mb 0.06 in1.5 mm 0.00 in0.0 mm 0.29 in7.4 mm
05:20 AM 59.0°F15.0°C 53.6°F12.0°C 80% 7.2 mph E11.6 kmh E 9.2 mph14.8 kmh 29.56 in1001.0 mb 0.00 in0.0 mm 0.00 in0.0 mm 0.29 in7.4 mm
05:25 AM 58.8°F14.9°C 53.6°F12.0°C 80% 9.0 mph ESE14.5 kmh ESE 13.0 mph20.9 kmh 29.53 in1000.0 mb 0.00 in0.0 mm 0.00 in0.0 mm 0.29 in7.4 mm
05:30 AM 58.8°F14.9°C 53.6°F12.0°C 80% 10.4 mph ESE16.7 kmh ESE 17.9 mph28.8 kmh 29.53 in1000.0 mb 0.00 in0.0 mm 0.00 in0.0 mm 0.29 in7.4 mm
05:35 AM 58.8°F14.9°C 53.6°F12.0°C 80% 10.7 mph E17.2 kmh E 17.9 mph28.8 kmh 29.53 in1000.0 mb 0.00 in0.0 mm 0.00 in0.0 mm 0.29 in7.4 mm
05:40 AM 58.8°F14.9°C 53.6°F12.0°C 80% 10.0 mph E16.1 kmh E 14.5 mph23.3 kmh 29.53 in1000.0 mb 0.00 in0.0 mm 0.00 in0.0 mm 0.29 in7.4 mm
05:45 AM 58.8°F14.9°C 53.6°F12.0°C 80% 9.3 mph E15.0 kmh E 14.5 mph23.3 kmh 29.53 in1000.0 mb 0.00 in0.0 mm 0.00 in0.0 mm 0.29 in7.4 mm
05:50 AM 58.6°F14.8°C 53.6°F12.0°C 80% 11.0 mph E17.7 kmh E 14.5 mph23.3 kmh 29.53 in1000.0 mb 0.06 in1.5 mm 0.72 in18.3 mm 0.35 in8.9 mm
05:55 AM 58.6°F14.8°C 53.6°F12.0°C 80% 12.1 mph E19.5 kmh E 18.1 mph29.1 kmh 29.53 in1000.0 mb 0.06 in1.5 mm 0.00 in0.0 mm 0.35 in8.9 mm
06:00 AM 58.5°F14.7°C 53.6°F12.0°C 81% 10.8 mph E17.4 kmh E 18.1 mph29.1 kmh 29.53 in1000.0 mb 0.06 in1.5 mm 0.00 in0.0 mm 0.35 in8.9 mm
06:05 AM 58.5°F14.7°C 53.6°F12.0°C 81% 9.9 mph E15.9 kmh E 12.3 mph19.8 kmh 29.53 in1000.0 mb 0.06 in1.5 mm 0.00 in0.0 mm 0.35 in8.9 mm
06:10 AM 58.5°F14.7°C 53.6°F12.0°C 81% 10.2 mph E16.4 kmh E 13.2 mph21.2 kmh 29.53 in1000.0 mb 0.06 in1.5 mm 0.00 in0.0 mm 0.35 in8.9 mm
06:15 AM 58.5°F14.7°C 53.6°F12.0°C 81% 8.8 mph E14.2 kmh E 13.2 mph21.2 kmh 29.53 in1000.0 mb 0.06 in1.5 mm 0.00 in0.0 mm 0.35 in8.9 mm
06:20 AM 58.6°F14.8°C 53.6°F12.0°C 82% 7.3 mph ESE11.7 kmh ESE 9.2 mph14.8 kmh 29.53 in1000.0 mb 0.06 in1.5 mm 0.00 in0.0 mm 0.35 in8.9 mm
06:25 AM 58.6°F14.8°C 53.6°F12.0°C 82% 7.9 mph ESE12.7 kmh ESE 10.1 mph16.3 kmh 29.53 in1000.0 mb 0.06 in1.5 mm 0.00 in0.0 mm 0.35 in8.9 mm
06:30 AM 58.6°F14.8°C 53.6°F12.0°C 82% 9.4 mph ESE15.1 kmh ESE 13.0 mph20.9 kmh 29.53 in1000.0 mb 0.06 in1.5 mm 0.00 in0.0 mm 0.35 in8.9 mm
06:35 AM 58.8°F14.9°C 53.6°F12.0°C 82% 9.6 mph ESE15.4 kmh ESE 13.0 mph20.9 kmh 29.53 in1000.0 mb 0.06 in1.5 mm 0.00 in0.0 mm 0.35 in8.9 mm
06:40 AM 58.8°F14.9°C 53.6°F12.0°C 82% 7.5 mph E12.1 kmh E 8.7 mph14.0 kmh 29.50 in999.0 mb 0.11 in2.8 mm 0.60 in15.2 mm 0.41 in10.4 mm
06:45 AM 59.0°F15.0°C 53.6°F12.0°C 83% 7.8 mph ESE12.6 kmh ESE 12.3 mph19.8 kmh 29.50 in999.0 mb 0.11 in2.8 mm 0.00 in0.0 mm 0.41 in10.4 mm
06:50 AM 59.0°F15.0°C 53.6°F12.0°C 83% 8.5 mph ESE13.7 kmh ESE 13.2 mph21.2 kmh 29.50 in999.0 mb 0.06 in1.5 mm 0.00 in0.0 mm 0.41 in10.4 mm
06:55 AM 59.0°F15.0°C 53.6°F12.0°C 83% 7.7 mph ESE12.4 kmh ESE 13.2 mph21.2 kmh 29.50 in999.0 mb 0.06 in1.5 mm 0.00 in0.0 mm 0.41 in10.4 mm
07:00 AM 59.2°F15.1°C 53.6°F12.0°C 83% 7.7 mph E12.4 kmh E 13.2 mph21.2 kmh 29.50 in999.0 mb 0.06 in1.5 mm 0.00 in0.0 mm 0.41 in10.4 mm
07:05 AM 59.2°F15.1°C 53.6°F12.0°C 83% 9.4 mph E15.1 kmh E 18.6 mph29.9 kmh 29.50 in999.0 mb 0.06 in1.5 mm 0.00 in0.0 mm 0.41 in10.4 mm
07:10 AM 59.4°F15.2°C 55.4°F13.0°C 83% 9.7 mph E15.6 kmh E 18.6 mph29.9 kmh 29.50 in999.0 mb 0.06 in1.5 mm 0.00 in0.0 mm 0.41 in10.4 mm
07:15 AM 59.5°F15.3°C 55.4°F13.0°C 83% 7.1 mph E11.4 kmh E 9.6 mph15.4 kmh 29.50 in999.0 mb 0.06 in1.5 mm 0.00 in0.0 mm 0.41 in10.4 mm
07:20 AM 59.7°F15.4°C 55.4°F13.0°C 83% 8.4 mph ENE13.5 kmh ENE 12.8 mph20.6 kmh 29.50 in999.0 mb 0.06 in1.5 mm 0.00 in0.0 mm 0.41 in10.4 mm
07:25 AM 59.9°F15.5°C 55.4°F13.0°C 83% 9.3 mph ENE15.0 kmh ENE 12.8 mph20.6 kmh 29.47 in998.0 mb 0.06 in1.5 mm 0.00 in0.0 mm 0.41 in10.4 mm
07:30 AM 60.1°F15.6°C 55.4°F13.0°C 84% 7.7 mph E12.4 kmh E 12.1 mph19.5 kmh 29.47 in998.0 mb 0.06 in1.5 mm 0.00 in0.0 mm 0.41 in10.4 mm
07:35 AM 60.1°F15.6°C 55.4°F13.0°C 84% 7.2 mph E11.6 kmh E 12.3 mph19.8 kmh 29.47 in998.0 mb 0.06 in1.5 mm 0.00 in0.0 mm 0.41 in10.4 mm
07:40 AM 60.3°F15.7°C 55.4°F13.0°C 84% 7.9 mph E12.7 kmh E 15.4 mph24.8 kmh 29.47 in998.0 mb 0.00 in0.0 mm 0.00 in0.0 mm 0.41 in10.4 mm
07:45 AM 60.4°F15.8°C 55.4°F13.0°C 84% 8.8 mph ESE14.2 kmh ESE 15.4 mph24.8 kmh 29.47 in998.0 mb 0.00 in0.0 mm 0.00 in0.0 mm 0.41 in10.4 mm
07:50 AM 60.4°F15.8°C 55.4°F13.0°C 84% 9.3 mph ESE15.0 kmh ESE 15.4 mph24.8 kmh 29.47 in998.0 mb 0.00 in0.0 mm 0.00 in0.0 mm 0.41 in10.4 mm
07:55 AM 60.4°F15.8°C 55.4°F13.0°C 84% 8.5 mph ESE13.7 kmh ESE 11.4 mph18.3 kmh 29.47 in998.0 mb 0.00 in0.0 mm 0.00 in0.0 mm 0.41 in10.4 mm
08:00 AM 60.4°F15.8°C 55.4°F13.0°C 84% 8.5 mph ESE13.7 kmh ESE 11.4 mph18.3 kmh 29.47 in998.0 mb 0.00 in0.0 mm 0.00 in0.0 mm 0.41 in10.4 mm
08:05 AM 60.6°F15.9°C 55.4°F13.0°C 84% 8.2 mph SE13.2 kmh SE 10.7 mph17.2 kmh 29.47 in998.0 mb 0.00 in0.0 mm 0.00 in0.0 mm 0.41 in10.4 mm
08:10 AM 60.6°F15.9°C 55.4°F13.0°C 84% 7.7 mph SE12.4 kmh SE 10.7 mph17.2 kmh 29.47 in998.0 mb 0.00 in0.0 mm 0.00 in0.0 mm 0.41 in10.4 mm
08:15 AM 60.8°F16.0°C 57.2°F14.0°C 85% 7.5 mph SE12.1 kmh SE 8.7 mph14.0 kmh 29.47 in998.0 mb 0.00 in0.0 mm 0.00 in0.0 mm 0.41 in10.4 mm
08:20 AM 60.8°F16.0°C 57.2°F14.0°C 85% 7.1 mph ESE11.4 kmh ESE 10.3 mph16.6 kmh 29.47 in998.0 mb 0.00 in0.0 mm 0.00 in0.0 mm 0.41 in10.4 mm
08:25 AM 61.0°F16.1°C 57.2°F14.0°C 85% 7.2 mph ESE11.6 kmh ESE 10.5 mph16.9 kmh 29.45 in997.3 mb 0.00 in0.0 mm 0.00 in0.0 mm 0.41 in10.4 mm
08:30 AM 61.0°F16.1°C 57.2°F14.0°C 85% 7.8 mph ESE12.6 kmh ESE 15.4 mph24.8 kmh 29.45 in997.3 mb 0.00 in0.0 mm 0.00 in0.0 mm 0.41 in10.4 mm
08:35 AM 61.0°F16.1°C 57.2°F14.0°C 85% 7.3 mph ESE11.7 kmh ESE 15.4 mph24.8 kmh 29.45 in997.3 mb 0.00 in0.0 mm 0.00 in0.0 mm 0.41 in10.4 mm
08:40 AM 61.2°F16.2°C 57.2°F14.0°C 85% 6.2 mph E10.0 kmh E 10.1 mph16.3 kmh 29.45 in997.3 mb 0.00 in0.0 mm 0.00 in0.0 mm 0.41 in10.4 mm
08:45 AM 61.2°F16.2°C 57.2°F14.0°C 85% 6.1 mph E9.8 kmh E 10.1 mph16.3 kmh 29.45 in997.3 mb 0.00 in0.0 mm 0.00 in0.0 mm 0.41 in10.4 mm
08:50 AM 61.3°F16.3°C 57.2°F14.0°C 86% 5.6 mph E9.0 kmh E 8.1 mph13.0 kmh 29.45 in997.3 mb 0.00 in0.0 mm 0.00 in0.0 mm 0.41 in10.4 mm
08:55 AM 61.3°F16.3°C 57.2°F14.0°C 86% 5.5 mph E8.9 kmh E 10.3 mph16.6 kmh 29.45 in997.3 mb 0.00 in0.0 mm 0.00 in0.0 mm 0.41 in10.4 mm
09:00 AM 61.3°F16.3°C 57.2°F14.0°C 86% 5.8 mph E9.3 kmh E 10.3 mph16.6 kmh 29.45 in997.3 mb 0.00 in0.0 mm 0.00 in0.0 mm 0.41 in10.4 mm
09:05 AM 61.3°F16.3°C 57.2°F14.0°C 86% 5.4 mph E8.7 kmh E 8.1 mph13.0 kmh 29.45 in997.3 mb 0.00 in0.0 mm 0.00 in0.0 mm 0.41 in10.4 mm
09:10 AM 61.5°F16.4°C 57.2°F14.0°C 86% 5.8 mph ESE9.3 kmh ESE 7.2 mph11.6 kmh 29.45 in997.3 mb 0.06 in1.5 mm 0.72 in18.3 mm 0.46 in11.7 mm
09:15 AM 61.5°F16.4°C 57.2°F14.0°C 87% 5.1 mph SE8.2 kmh SE 7.2 mph11.6 kmh 29.45 in997.3 mb 0.06 in1.5 mm 0.00 in0.0 mm 0.46 in11.7 mm
09:20 AM 61.7°F16.5°C 59.0°F15.0°C 87% 4.2 mph SE6.8 kmh SE 6.3 mph10.1 kmh 29.45 in997.3 mb 0.06 in1.5 mm 0.00 in0.0 mm 0.46 in11.7 mm
09:25 AM 61.9°F16.6°C 57.2°F14.0°C 86% 4.9 mph ESE7.9 kmh ESE 7.4 mph11.9 kmh 29.41 in995.9 mb 0.06 in1.5 mm 0.00 in0.0 mm 0.46 in11.7 mm
09:30 AM 61.9°F16.6°C 57.2°F14.0°C 86% 6.2 mph ESE10.0 kmh ESE 9.6 mph15.4 kmh 29.41 in995.9 mb 0.06 in1.5 mm 0.00 in0.0 mm 0.46 in11.7 mm
09:35 AM 62.1°F16.7°C 57.2°F14.0°C 86% 7.3 mph ESE11.7 kmh ESE 10.1 mph16.3 kmh 29.41 in995.9 mb 0.06 in1.5 mm 0.00 in0.0 mm 0.46 in11.7 mm
09:40 AM 62.2°F16.8°C 57.2°F14.0°C 86% 7.8 mph ESE12.6 kmh ESE 12.3 mph19.8 kmh 29.41 in995.9 mb 0.06 in1.5 mm 0.00 in0.0 mm 0.46 in11.7 mm
09:45 AM 62.2°F16.8°C 57.2°F14.0°C 86% 8.1 mph SE13.0 kmh SE 13.0 mph20.9 kmh 29.41 in995.9 mb 0.06 in1.5 mm 0.00 in0.0 mm 0.46 in11.7 mm
09:50 AM 62.4°F16.9°C 59.0°F15.0°C 86% 7.1 mph SE11.4 kmh SE 13.0 mph20.9 kmh 29.41 in995.9 mb 0.06 in1.5 mm 0.00 in0.0 mm 0.46 in11.7 mm
09:55 AM 62.6°F17.0°C 59.0°F15.0°C 86% 5.4 mph SE8.7 kmh SE 10.5 mph16.9 kmh 29.41 in995.9 mb 0.06 in1.5 mm 0.00 in0.0 mm 0.46 in11.7 mm
10:00 AM 63.0°F17.2°C 59.0°F15.0°C 86% 5.5 mph SE8.9 kmh SE 10.3 mph16.6 kmh 29.41 in995.9 mb 0.06 in1.5 mm 0.00 in0.0 mm 0.46 in11.7 mm
10:05 AM 63.0°F17.2°C 59.0°F15.0°C 86% 7.0 mph SE11.3 kmh SE 10.7 mph17.2 kmh 29.41 in995.9 mb 0.06 in1.5 mm 0.00 in0.0 mm 0.46 in11.7 mm
10:10 AM 63.1°F17.3°C 59.0°F15.0°C 86% 6.7 mph SE10.8 kmh SE 10.7 mph17.2 kmh 29.41 in995.9 mb 0.00 in0.0 mm 0.00 in0.0 mm 0.46 in11.7 mm
10:15 AM 63.3°F17.4°C 59.0°F15.0°C 87% 6.3 mph SE10.1 kmh SE 10.5 mph16.9 kmh 29.41 in995.9 mb 0.00 in0.0 mm 0.00 in0.0 mm 0.46 in11.7 mm
10:20 AM 63.3°F17.4°C 59.0°F15.0°C 87% 6.5 mph SE10.5 kmh SE 10.5 mph16.9 kmh 29.41 in995.9 mb 0.00 in0.0 mm 0.00 in0.0 mm 0.46 in11.7 mm
10:25 AM 63.5°F17.5°C 60.8°F16.0°C 87% 5.9 mph SE9.5 kmh SE 7.8 mph12.6 kmh 29.39 in995.3 mb 0.00 in0.0 mm 0.00 in0.0 mm 0.46 in11.7 mm
10:30 AM 63.7°F17.6°C 60.8°F16.0°C 87% 5.5 mph ESE8.9 kmh ESE 7.6 mph12.2 kmh 29.39 in995.3 mb 0.00 in0.0 mm 0.00 in0.0 mm 0.46 in11.7 mm
10:35 AM 63.7°F17.6°C 60.8°F16.0°C 87% 5.6 mph ESE9.0 kmh ESE 7.6 mph12.2 kmh 29.39 in995.3 mb 0.00 in0.0 mm 0.00 in0.0 mm 0.46 in11.7 mm
10:40 AM 64.0°F17.8°C 60.8°F16.0°C 87% 6.0 mph SE9.7 kmh SE 8.5 mph13.7 kmh 29.39 in995.3 mb 0.07 in1.8 mm 0.84 in21.3 mm 0.53 in13.5 mm
10:45 AM 64.0°F17.8°C 60.8°F16.0°C 87% 6.9 mph SE11.1 kmh SE 11.0 mph17.7 kmh 29.39 in995.3 mb 0.07 in1.8 mm 0.00 in0.0 mm 0.53 in13.5 mm
10:50 AM 64.2°F17.9°C 60.8°F16.0°C 87% 7.2 mph SE11.6 kmh SE 11.0 mph17.7 kmh 29.39 in995.3 mb 0.07 in1.8 mm 0.00 in0.0 mm 0.53 in13.5 mm
10:55 AM 64.4°F18.0°C 60.8°F16.0°C 87% 6.8 mph SE10.9 kmh SE 10.5 mph16.9 kmh 29.39 in995.3 mb 0.07 in1.8 mm 0.00 in0.0 mm 0.53 in13.5 mm
11:00 AM 64.6°F18.1°C 60.8°F16.0°C 87% 6.5 mph SE10.5 kmh SE 9.4 mph15.1 kmh 29.39 in995.3 mb 0.07 in1.8 mm 0.00 in0.0 mm 0.53 in13.5 mm
11:05 AM 64.6°F18.1°C 60.8°F16.0°C 87% 6.1 mph SE9.8 kmh SE 10.3 mph16.6 kmh 29.39 in995.3 mb 0.07 in1.8 mm 0.00 in0.0 mm 0.53 in13.5 mm
11:10 AM 64.8°F18.2°C 60.8°F16.0°C 87% 6.6 mph SE10.6 kmh SE 11.4 mph18.3 kmh 29.39 in995.3 mb 0.07 in1.8 mm 0.00 in0.0 mm 0.53 in13.5 mm
11:15 AM 64.8°F18.2°C 60.8°F16.0°C 87% 7.6 mph SE12.2 kmh SE 12.3 mph19.8 kmh 29.39 in995.3 mb 0.07 in1.8 mm 0.00 in0.0 mm 0.53 in13.5 mm
11:20 AM 64.8°F18.2°C 60.8°F16.0°C 87% 6.3 mph SE10.1 kmh SE 12.3 mph19.8 kmh 29.39 in995.3 mb 0.07 in1.8 mm 0.00 in0.0 mm 0.53 in13.5 mm
11:25 AM 65.1°F18.4°C 60.8°F16.0°C 87% 5.8 mph SE9.3 kmh SE 13.0 mph20.9 kmh 29.39 in995.3 mb 0.07 in1.8 mm 0.00 in0.0 mm 0.53 in13.5 mm
11:30 AM 65.5°F18.6°C 62.6°F17.0°C 88% 6.5 mph SE10.5 kmh SE 13.0 mph20.9 kmh 29.39 in995.3 mb 0.07 in1.8 mm 0.00 in0.0 mm 0.53 in13.5 mm
11:35 AM 65.8°F18.8°C 62.6°F17.0°C 87% 6.5 mph SE10.5 kmh SE 10.3 mph16.6 kmh 29.39 in995.3 mb 0.00 in0.0 mm 0.00 in0.0 mm 0.53 in13.5 mm
11:40 AM 65.8°F18.8°C 62.6°F17.0°C 88% 6.4 mph SE10.3 kmh SE 10.3 mph16.6 kmh 29.36 in994.2 mb 0.00 in0.0 mm 0.00 in0.0 mm 0.53 in13.5 mm
11:45 AM 66.0°F18.9°C 62.6°F17.0°C 88% 5.2 mph SE8.4 kmh SE 8.7 mph14.0 kmh 29.36 in994.2 mb 0.00 in0.0 mm 0.00 in0.0 mm 0.53 in13.5 mm
11:50 AM 66.4°F19.1°C 62.6°F17.0°C 88% 4.9 mph SE7.9 kmh SE 8.7 mph14.0 kmh 29.36 in994.2 mb 0.00 in0.0 mm 0.00 in0.0 mm 0.53 in13.5 mm
11:55 AM 66.9°F19.4°C 62.6°F17.0°C 87% 5.7 mph SE9.2 kmh SE 8.7 mph14.0 kmh 29.36 in994.2 mb 0.00 in0.0 mm 0.00 in0.0 mm 0.53 in13.5 mm
12:00 PM 67.8°F19.9°C 64.4°F18.0°C 87% 5.9 mph SE9.5 kmh SE 8.7 mph14.0 kmh 29.36 in994.2 mb 0.00 in0.0 mm 0.00 in0.0 mm 0.53 in13.5 mm
12:05 PM 68.4°F20.2°C 64.4°F18.0°C 87% 4.8 mph SE7.7 kmh SE 7.4 mph11.9 kmh 29.36 in994.2 mb 0.00 in0.0 mm 0.00 in0.0 mm 0.53 in13.5 mm
12:10 PM 69.6°F20.9°C 66.2°F19.0°C 87% 4.2 mph SE6.8 kmh SE 6.3 mph10.1 kmh 29.36 in994.2 mb 0.00 in0.0 mm 0.00 in0.0 mm 0.53 in13.5 mm
12:15 PM 72.3°F22.4°C 68.0°F20.0°C 85% 4.6 mph S7.4 kmh S 7.6 mph12.2 kmh 29.36 in994.2 mb 0.00 in0.0 mm 0.00 in0.0 mm 0.53 in13.5 mm
12:20 PM 72.9°F22.7°C 68.0°F20.0°C 84% 4.4 mph S7.1 kmh S 7.6 mph12.2 kmh 29.36 in994.2 mb 0.00 in0.0 mm 0.00 in0.0 mm 0.53 in13.5 mm
12:25 PM 72.0°F22.2°C 68.0°F20.0°C 84% 4.9 mph S7.9 kmh S 8.7 mph14.0 kmh 29.36 in994.2 mb 0.00 in0.0 mm 0.00 in0.0 mm 0.53 in13.5 mm
12:30 PM 72.0°F22.2°C 68.0°F20.0°C 84% 4.2 mph S6.8 kmh S 8.7 mph14.0 kmh 29.36 in994.2 mb 0.00 in0.0 mm 0.00 in0.0 mm 0.53 in13.5 mm
12:35 PM 74.3°F23.5°C 68.0°F20.0°C 81% 4.8 mph SSE7.7 kmh SSE 7.8 mph12.6 kmh 29.36 in994.2 mb 0.00 in0.0 mm 0.00 in0.0 mm 0.53 in13.5 mm
12:40 PM 75.4°F24.1°C 68.0°F20.0°C 79% 6.0 mph SSE9.7 kmh SSE 7.8 mph12.6 kmh 29.36 in994.2 mb 0.00 in0.0 mm 0.00 in0.0 mm 0.53 in13.5 mm
12:45 PM 76.3°F24.6°C 69.8°F21.0°C 79% 5.4 mph SSE8.7 kmh SSE 7.6 mph12.2 kmh 29.36 in994.2 mb 0.00 in0.0 mm 0.00 in0.0 mm 0.53 in13.5 mm
12:50 PM 76.8°F24.9°C 69.8°F21.0°C 77% 6.2 mph S10.0 kmh S 10.5 mph16.9 kmh 29.36 in994.2 mb 0.00 in0.0 mm 0.00 in0.0 mm 0.53 in13.5 mm
12:55 PM 76.6°F24.8°C 69.8°F21.0°C 77% 8.3 mph S13.4 kmh S 13.0 mph20.9 kmh 29.33 in993.2 mb 0.00 in0.0 mm 0.00 in0.0 mm 0.53 in13.5 mm
01:00 PM 77.5°F25.3°C 68.0°F20.0°C 73% 8.2 mph S13.2 kmh S 13.0 mph20.9 kmh 29.33 in993.2 mb 0.00 in0.0 mm 0.00 in0.0 mm 0.53 in13.5 mm
01:05 PM 78.3°F25.7°C 69.8°F21.0°C 72% 8.3 mph SSE13.4 kmh SSE 14.1 mph22.7 kmh 29.33 in993.2 mb 0.00 in0.0 mm 0.00 in0.0 mm 0.53 in13.5 mm
01:10 PM 78.4°F25.8°C 68.0°F20.0°C 71% 8.3 mph SSE13.4 kmh SSE 14.1 mph22.7 kmh 29.36 in994.2 mb 0.00 in0.0 mm 0.00 in0.0 mm 0.53 in13.5 mm
01:15 PM 76.8°F24.9°C 68.0°F20.0°C 71% 8.6 mph S13.8 kmh S 15.2 mph24.5 kmh 29.36 in994.2 mb 0.00 in0.0 mm 0.00 in0.0 mm 0.53 in13.5 mm
01:20 PM 75.7°F24.3°C 66.2°F19.0°C 72% 8.1 mph S13.0 kmh S 15.2 mph24.5 kmh 29.36 in994.2 mb 0.00 in0.0 mm 0.00 in0.0 mm 0.53 in13.5 mm
01:25 PM 75.9°F24.4°C 66.2°F19.0°C 71% 6.5 mph S10.5 kmh S 9.4 mph15.1 kmh 29.33 in993.2 mb 0.00 in0.0 mm 0.00 in0.0 mm 0.53 in13.5 mm
01:30 PM 78.6°F25.9°C 68.0°F20.0°C 68% 6.5 mph S10.5 kmh S 9.4 mph15.1 kmh 29.33 in993.2 mb 0.00 in0.0 mm 0.00 in0.0 mm 0.53 in13.5 mm
01:35 PM 79.2°F26.2°C 68.0°F20.0°C 68% 7.6 mph S12.2 kmh S 11.4 mph18.3 kmh 29.33 in993.2 mb 0.00 in0.0 mm 0.00 in0.0 mm 0.53 in13.5 mm
01:40 PM 79.3°F26.3°C 68.0°F20.0°C 67% 8.1 mph S13.0 kmh S 11.4 mph18.3 kmh 29.33 in993.2 mb 0.00 in0.0 mm 0.00 in0.0 mm 0.53 in13.5 mm
01:45 PM 79.3°F26.3°C 68.0°F20.0°C 66% 7.5 mph S12.1 kmh S 11.4 mph18.3 kmh 29.33 in993.2 mb 0.00 in0.0 mm 0.00 in0.0 mm 0.53 in13.5 mm
01:50 PM 79.0°F26.1°C 66.2°F19.0°C 66% 7.6 mph S12.2 kmh S 11.4 mph18.3 kmh 29.33 in993.2 mb 0.00 in0.0 mm 0.00 in0.0 mm 0.53 in13.5 mm
01:55 PM 79.3°F26.3°C 68.0°F20.0°C 65% 8.9 mph S14.3 kmh S 12.3 mph19.8 kmh 29.33 in993.2 mb 0.00 in0.0 mm 0.00 in0.0 mm 0.53 in13.5 mm
02:00 PM 79.5°F26.4°C 66.2°F19.0°C 63% 10.1 mph S16.3 kmh S 13.2 mph21.2 kmh 29.33 in993.2 mb 0.00 in0.0 mm 0.00 in0.0 mm 0.53 in13.5 mm
02:05 PM 79.9°F26.6°C 66.2°F19.0°C 62% 8.7 mph SSE14.0 kmh SSE 17.0 mph27.4 kmh 29.33 in993.2 mb 0.00 in0.0 mm 0.00 in0.0 mm 0.53 in13.5 mm
02:10 PM 80.6°F27.0°C 66.2°F19.0°C 61% 7.1 mph S11.4 kmh S 17.0 mph27.4 kmh 29.33 in993.2 mb 0.00 in0.0 mm 0.00 in0.0 mm 0.53 in13.5 mm
02:15 PM 80.6°F27.0°C 66.2°F19.0°C 60% 6.3 mph S10.1 kmh S 10.7 mph17.2 kmh 29.33 in993.2 mb 0.00 in0.0 mm 0.00 in0.0 mm 0.53 in13.5 mm
02:20 PM 78.8°F26.0°C 64.4°F18.0°C 61% 6.4 mph S10.3 kmh S 10.7 mph17.2 kmh 29.33 in993.2 mb 0.00 in0.0 mm 0.00 in0.0 mm 0.53 in13.5 mm
02:25 PM 78.4°F25.8°C 64.4°F18.0°C 61% 6.8 mph S10.9 kmh S 8.5 mph13.7 kmh 29.33 in993.2 mb 0.00 in0.0 mm 0.00 in0.0 mm 0.53 in13.5 mm
02:30 PM 77.9°F25.5°C 64.4°F18.0°C 60% 7.8 mph S12.6 kmh S 14.8 mph23.8 kmh 29.33 in993.2 mb 0.00 in0.0 mm 0.00 in0.0 mm 0.53 in13.5 mm
02:35 PM 77.2°F25.1°C 62.6°F17.0°C 59% 8.7 mph S14.0 kmh S 14.8 mph23.8 kmh 29.33 in993.2 mb 0.00 in0.0 mm 0.00 in0.0 mm 0.53 in13.5 mm
02:40 PM 79.0°F26.1°C 62.6°F17.0°C 58% 7.9 mph S12.7 kmh S 12.1 mph19.5 kmh 29.33 in993.2 mb 0.00 in0.0 mm 0.00 in0.0 mm 0.53 in13.5 mm
02:45 PM 79.3°F26.3°C 64.4°F18.0°C 58% 7.8 mph S12.6 kmh S 13.2 mph21.2 kmh 29.33 in993.2 mb 0.00 in0.0 mm 0.00 in0.0 mm 0.53 in13.5 mm
02:50 PM 78.1°F25.6°C 62.6°F17.0°C 59% 9.5 mph S15.3 kmh S 13.2 mph21.2 kmh 29.33 in993.2 mb 0.00 in0.0 mm 0.00 in0.0 mm 0.53 in13.5 mm
02:55 PM 76.6°F24.8°C 62.6°F17.0°C 60% 9.1 mph S14.6 kmh S 12.1 mph19.5 kmh 29.33 in993.2 mb 0.00 in0.0 mm 0.00 in0.0 mm 0.53 in13.5 mm
03:00 PM 76.8°F24.9°C 62.6°F17.0°C 60% 9.3 mph S15.0 kmh S 16.8 mph27.0 kmh 29.33 in993.2 mb 0.00 in0.0 mm 0.00 in0.0 mm 0.53 in13.5 mm
03:05 PM 77.5°F25.3°C 62.6°F17.0°C 58% 9.0 mph S14.5 kmh S 16.8 mph27.0 kmh 29.33 in993.2 mb 0.00 in0.0 mm 0.00 in0.0 mm 0.53 in13.5 mm
03:10 PM 78.1°F25.6°C 62.6°F17.0°C 58% 8.3 mph S13.4 kmh S 13.2 mph21.2 kmh 29.33 in993.2 mb 0.00 in0.0 mm 0.00 in0.0 mm 0.53 in13.5 mm
03:15 PM 77.7°F25.4°C 62.6°F17.0°C 58% 8.2 mph S13.2 kmh S 12.8 mph20.6 kmh 29.33 in993.2 mb 0.00 in0.0 mm 0.00 in0.0 mm 0.53 in13.5 mm
03:20 PM 76.3°F24.6°C 60.8°F16.0°C 58% 7.9 mph SSW12.7 kmh SSW 12.1 mph19.5 kmh 29.33 in993.2 mb 0.00 in0.0 mm 0.00 in0.0 mm 0.53 in13.5 mm
03:25 PM 75.6°F24.2°C 60.8°F16.0°C 59% 8.5 mph S13.7 kmh S 11.0 mph17.7 kmh 29.33 in993.2 mb 0.00 in0.0 mm 0.00 in0.0 mm 0.53 in13.5 mm
03:30 PM 75.2°F24.0°C 60.8°F16.0°C 59% 8.1 mph S13.0 kmh S 11.0 mph17.7 kmh 29.33 in993.2 mb 0.00 in0.0 mm 0.00 in0.0 mm 0.53 in13.5 mm
03:35 PM 74.7°F23.7°C 60.8°F16.0°C 61% 5.6 mph S9.0 kmh S 8.7 mph14.0 kmh 29.33 in993.2 mb 0.00 in0.0 mm 0.00 in0.0 mm 0.53 in13.5 mm
03:40 PM 74.1°F23.4°C 59.0°F15.0°C 60% 5.4 mph S8.7 kmh S 10.1 mph16.3 kmh 29.33 in993.2 mb 0.00 in0.0 mm 0.00 in0.0 mm 0.53 in13.5 mm
03:45 PM 73.9°F23.3°C 59.0°F15.0°C 61% 6.0 mph S9.7 kmh S 10.1 mph16.3 kmh 29.33 in993.2 mb 0.00 in0.0 mm 0.00 in0.0 mm 0.53 in13.5 mm
03:50 PM 73.8°F23.2°C 59.0°F15.0°C 61% 4.9 mph S7.9 kmh S 7.8 mph12.6 kmh 29.33 in993.2 mb 0.00 in0.0 mm 0.00 in0.0 mm 0.53 in13.5 mm
03:55 PM 72.9°F22.7°C 59.0°F15.0°C 63% 4.7 mph S7.6 kmh S 6.5 mph10.5 kmh 29.33 in993.2 mb 0.00 in0.0 mm 0.00 in0.0 mm 0.53 in13.5 mm
04:00 PM 72.3°F22.4°C 59.0°F15.0°C 64% 4.0 mph S6.4 kmh S 6.5 mph10.5 kmh 29.33 in993.2 mb 0.00 in0.0 mm 0.00 in0.0 mm 0.53 in13.5 mm
04:05 PM 71.8°F22.1°C 59.0°F15.0°C 65% 4.3 mph SSW6.9 kmh SSW 7.8 mph12.6 kmh 29.33 in993.2 mb 0.00 in0.0 mm 0.00 in0.0 mm 0.53 in13.5 mm
04:10 PM 71.2°F21.8°C 59.0°F15.0°C 66% 6.8 mph SW10.9 kmh SW 13.0 mph20.9 kmh 29.33 in993.2 mb 0.00 in0.0 mm 0.00 in0.0 mm 0.53 in13.5 mm
04:15 PM 70.9°F21.6°C 59.0°F15.0°C 66% 7.4 mph SSW11.9 kmh SSW 13.0 mph20.9 kmh 29.33 in993.2 mb 0.00 in0.0 mm 0.00 in0.0 mm 0.53 in13.5 mm
04:20 PM 70.3°F21.3°C 59.0°F15.0°C 67% 7.1 mph S11.4 kmh S 13.0 mph20.9 kmh 29.33 in993.2 mb 0.00 in0.0 mm 0.00 in0.0 mm 0.53 in13.5 mm
04:25 PM 70.9°F21.6°C 60.8°F16.0°C 68% 5.7 mph S9.2 kmh S 10.7 mph17.2 kmh 29.33 in993.2 mb 0.00 in0.0 mm 0.00 in0.0 mm 0.53 in13.5 mm
04:30 PM 71.2°F21.8°C 59.0°F15.0°C 67% 5.6 mph S9.0 kmh S 10.5 mph16.9 kmh 29.33 in993.2 mb 0.00 in0.0 mm 0.00 in0.0 mm 0.53 in13.5 mm
04:35 PM 71.1°F21.7°C 60.8°F16.0°C 68% 6.0 mph S9.7 kmh S 10.5 mph16.9 kmh 29.33 in993.2 mb 0.00 in0.0 mm 0.00 in0.0 mm 0.53 in13.5 mm
04:40 PM 71.1°F21.7°C 60.8°F16.0°C 68% 6.3 mph S10.1 kmh S 9.6 mph15.4 kmh 29.30 in992.2 mb 0.00 in0.0 mm 0.00 in0.0 mm 0.53 in13.5 mm
04:45 PM 71.2°F21.8°C 59.0°F15.0°C 67% 8.0 mph S12.9 kmh S 14.3 mph23.0 kmh 29.30 in992.2 mb 0.00 in0.0 mm 0.00 in0.0 mm 0.53 in13.5 mm
04:50 PM 71.6°F22.0°C 60.8°F16.0°C 67% 8.3 mph S13.4 kmh S 14.3 mph23.0 kmh 29.30 in992.2 mb 0.00 in0.0 mm 0.00 in0.0 mm 0.53 in13.5 mm
04:55 PM 71.6°F22.0°C 59.0°F15.0°C 66% 6.4 mph SSE10.3 kmh SSE 11.0 mph17.7 kmh 29.30 in992.2 mb 0.00 in0.0 mm 0.00 in0.0 mm 0.53 in13.5 mm
05:00 PM 71.6°F22.0°C 59.0°F15.0°C 66% 6.4 mph S10.3 kmh S 10.1 mph16.3 kmh 29.30 in992.2 mb 0.00 in0.0 mm 0.00 in0.0 mm 0.53 in13.5 mm
05:05 PM 71.2°F21.8°C 59.0°F15.0°C 67% 8.1 mph S13.0 kmh S 10.5 mph16.9 kmh 29.30 in992.2 mb 0.00 in0.0 mm 0.00 in0.0 mm 0.53 in13.5 mm
05:10 PM 71.2°F21.8°C 59.0°F15.0°C 67% 9.2 mph SSE14.8 kmh SSE 12.5 mph20.1 kmh 29.30 in992.2 mb 0.00 in0.0 mm 0.00 in0.0 mm 0.53 in13.5 mm
05:15 PM 71.2°F21.8°C 59.0°F15.0°C 67% 8.9 mph SSE14.3 kmh SSE 12.5 mph20.1 kmh 29.30 in992.2 mb 0.00 in0.0 mm 0.00 in0.0 mm 0.53 in13.5 mm
05:20 PM 71.6°F22.0°C 59.0°F15.0°C 66% 8.2 mph SSE13.2 kmh SSE 11.2 mph18.0 kmh 29.30 in992.2 mb 0.00 in0.0 mm 0.00 in0.0 mm 0.53 in13.5 mm
05:25 PM 71.6°F22.0°C 59.0°F15.0°C 65% 7.8 mph S12.6 kmh S 13.2 mph21.2 kmh 29.30 in992.2 mb 0.00 in0.0 mm 0.00 in0.0 mm 0.53 in13.5 mm
05:30 PM 71.8°F22.1°C 59.0°F15.0°C 65% 7.7 mph S12.4 kmh S 13.2 mph21.2 kmh 29.30 in992.2 mb 0.00 in0.0 mm 0.00 in0.0 mm 0.53 in13.5 mm
05:35 PM 71.8°F22.1°C 59.0°F15.0°C 65% 7.7 mph S12.4 kmh S 12.1 mph19.5 kmh 29.30 in992.2 mb 0.00 in0.0 mm 0.00 in0.0 mm 0.53 in13.5 mm
05:40 PM 71.8°F22.1°C 59.0°F15.0°C 65% 8.2 mph S13.2 kmh S 11.9 mph19.2 kmh 29.30 in992.2 mb 0.00 in0.0 mm 0.00 in0.0 mm 0.53 in13.5 mm
05:45 PM 71.6°F22.0°C 59.0°F15.0°C 65% 8.5 mph S13.7 kmh S 14.1 mph22.7 kmh 29.30 in992.2 mb 0.00 in0.0 mm 0.00 in0.0 mm 0.53 in13.5 mm
05:50 PM 71.2°F21.8°C 59.0°F15.0°C 66% 8.8 mph S14.2 kmh S 14.1 mph22.7 kmh 29.30 in992.2 mb 0.00 in0.0 mm 0.00 in0.0 mm 0.53 in13.5 mm
05:55 PM 71.4°F21.9°C 59.0°F15.0°C 66% 8.5 mph S13.7 kmh S 13.4 mph21.6 kmh 29.30 in992.2 mb 0.00 in0.0 mm 0.00 in0.0 mm 0.53 in13.5 mm
06:00 PM 71.4°F21.9°C 59.0°F15.0°C 66% 6.9 mph S11.1 kmh S 13.4 mph21.6 kmh 29.30 in992.2 mb 0.00 in0.0 mm 0.00 in0.0 mm 0.53 in13.5 mm
06:05 PM 71.2°F21.8°C 59.0°F15.0°C 66% 7.0 mph S11.3 kmh S 12.1 mph19.5 kmh 29.30 in992.2 mb 0.00 in0.0 mm 0.00 in0.0 mm 0.53 in13.5 mm
06:10 PM 71.1°F21.7°C 59.0°F15.0°C 66% 7.3 mph S11.7 kmh S 12.1 mph19.5 kmh 29.30 in992.2 mb 0.00 in0.0 mm 0.00 in0.0 mm 0.53 in13.5 mm
06:15 PM 70.9°F21.6°C 59.0°F15.0°C 66% 6.7 mph S10.8 kmh S 12.1 mph19.5 kmh 29.30 in992.2 mb 0.00 in0.0 mm 0.00 in0.0 mm 0.53 in13.5 mm
06:20 PM 70.7°F21.5°C 59.0°F15.0°C 67% 7.0 mph S11.3 kmh S 14.5 mph23.3 kmh 29.30 in992.2 mb 0.00 in0.0 mm 0.00 in0.0 mm 0.53 in13.5 mm
06:25 PM 70.7°F21.5°C 59.0°F15.0°C 67% 6.4 mph S10.3 kmh S 14.5 mph23.3 kmh 29.30 in992.2 mb 0.00 in0.0 mm 0.00 in0.0 mm 0.53 in13.5 mm
06:30 PM 70.5°F21.4°C 59.0°F15.0°C 67% 5.5 mph S8.9 kmh S 8.5 mph13.7 kmh 29.30 in992.2 mb 0.00 in0.0 mm 0.00 in0.0 mm 0.53 in13.5 mm
06:35 PM 70.3°F21.3°C 59.0°F15.0°C 68% 4.8 mph S7.7 kmh S 8.5 mph13.7 kmh 29.30 in992.2 mb 0.00 in0.0 mm 0.00 in0.0 mm 0.53 in13.5 mm
06:40 PM 70.2°F21.2°C 59.0°F15.0°C 68% 4.7 mph S7.6 kmh S 8.5 mph13.7 kmh 29.27 in991.2 mb 0.00 in0.0 mm 0.00 in0.0 mm 0.53 in13.5 mm
06:45 PM 70.0°F21.1°C 59.0°F15.0°C 67% 5.9 mph SSE9.5 kmh SSE 13.0 mph20.9 kmh 29.27 in991.2 mb 0.00 in0.0 mm 0.00 in0.0 mm 0.53 in13.5 mm
06:50 PM 69.8°F21.0°C 59.0°F15.0°C 67% 8.3 mph SSE13.4 kmh SSE 13.2 mph21.2 kmh 29.27 in991.2 mb 0.00 in0.0 mm 0.00 in0.0 mm 0.53 in13.5 mm
06:55 PM 69.6°F20.9°C 59.0°F15.0°C 68% 8.0 mph S12.9 kmh S 13.2 mph21.2 kmh 29.27 in991.2 mb 0.00 in0.0 mm 0.00 in0.0 mm 0.53 in13.5 mm
07:00 PM 69.4°F20.8°C 59.0°F15.0°C 68% 5.9 mph S9.5 kmh S 12.3 mph19.8 kmh 29.27 in991.2 mb 0.00 in0.0 mm 0.00 in0.0 mm 0.53 in13.5 mm
07:05 PM 69.3°F20.7°C 59.0°F15.0°C 68% 6.4 mph S10.3 kmh S 13.2 mph21.2 kmh 29.27 in991.2 mb 0.00 in0.0 mm 0.00 in0.0 mm 0.53 in13.5 mm
07:10 PM 69.1°F20.6°C 59.0°F15.0°C 68% 6.4 mph SSE10.3 kmh SSE 13.2 mph21.2 kmh 29.27 in991.2 mb 0.00 in0.0 mm 0.00 in0.0 mm 0.53 in13.5 mm
07:15 PM 69.1°F20.6°C 57.2°F14.0°C 67% 6.9 mph S11.1 kmh S 12.3 mph19.8 kmh 29.27 in991.2 mb 0.00 in0.0 mm 0.00 in0.0 mm 0.53 in13.5 mm
07:20 PM 68.9°F20.5°C 57.2°F14.0°C 67% 8.3 mph S13.4 kmh S 12.3 mph19.8 kmh 29.27 in991.2 mb 0.00 in0.0 mm 0.00 in0.0 mm 0.53 in13.5 mm
07:25 PM 68.7°F20.4°C 57.2°F14.0°C 67% 8.3 mph S13.4 kmh S 11.0 mph17.7 kmh 29.27 in991.2 mb 0.00 in0.0 mm 0.00 in0.0 mm 0.53 in13.5 mm
07:30 PM 68.4°F20.2°C 57.2°F14.0°C 67% 7.9 mph S12.7 kmh S 10.5 mph16.9 kmh 29.27 in991.2 mb 0.00 in0.0 mm 0.00 in0.0 mm 0.53 in13.5 mm
07:35 PM 68.4°F20.2°C 57.2°F14.0°C 67% 8.5 mph S13.7 kmh S 11.0 mph17.7 kmh 29.27 in991.2 mb 0.00 in0.0 mm 0.00 in0.0 mm 0.53 in13.5 mm
07:40 PM 68.0°F20.0°C 57.2°F14.0°C 67% 9.0 mph S14.5 kmh S 13.2 mph21.2 kmh 29.27 in991.2 mb 0.00 in0.0 mm 0.00 in0.0 mm 0.53 in13.5 mm
07:45 PM 68.0°F20.0°C 57.2°F14.0°C 67% 7.9 mph S12.7 kmh S 13.2 mph21.2 kmh 29.27 in991.2 mb 0.00 in0.0 mm 0.00 in0.0 mm 0.53 in13.5 mm
07:50 PM 67.8°F19.9°C 57.2°F14.0°C 68% 6.8 mph S10.9 kmh S 10.3 mph16.6 kmh 29.27 in991.2 mb 0.00 in0.0 mm 0.00 in0.0 mm 0.53 in13.5 mm
07:55 PM 68.0°F20.0°C 57.2°F14.0°C 67% 6.8 mph S10.9 kmh S 10.3 mph16.6 kmh 29.27 in991.2 mb 0.00 in0.0 mm 0.00 in0.0 mm 0.53 in13.5 mm
08:00 PM 67.8°F19.9°C 57.2°F14.0°C 68% 6.4 mph S10.3 kmh S 8.7 mph14.0 kmh 29.27 in991.2 mb 0.00 in0.0 mm 0.00 in0.0 mm 0.53 in13.5 mm
08:05 PM 67.6°F19.8°C 57.2°F14.0°C 68% 6.0 mph SSE9.7 kmh SSE 8.7 mph14.0 kmh 29.27 in991.2 mb 0.00 in0.0 mm 0.00 in0.0 mm 0.53 in13.5 mm
08:10 PM 67.5°F19.7°C 57.2°F14.0°C 69% 5.3 mph SSE8.5 kmh SSE 8.7 mph14.0 kmh 29.27 in991.2 mb 0.00 in0.0 mm 0.00 in0.0 mm 0.53 in13.5 mm
08:15 PM 67.1°F19.5°C 57.2°F14.0°C 69% 5.0 mph S8.0 kmh S 10.5 mph16.9 kmh 29.27 in991.2 mb 0.00 in0.0 mm 0.00 in0.0 mm 0.53 in13.5 mm
08:20 PM 66.9°F19.4°C 57.2°F14.0°C 70% 6.0 mph S9.7 kmh S 10.5 mph16.9 kmh 29.27 in991.2 mb 0.00 in0.0 mm 0.00 in0.0 mm 0.53 in13.5 mm
08:25 PM 66.9°F19.4°C 57.2°F14.0°C 70% 6.9 mph SSE11.1 kmh SSE 11.0 mph17.7 kmh 29.27 in991.2 mb 0.00 in0.0 mm 0.00 in0.0 mm 0.53 in13.5 mm
08:30 PM 66.6°F19.2°C 57.2°F14.0°C 71% 6.1 mph SSE9.8 kmh SSE 11.0 mph17.7 kmh 29.27 in991.2 mb 0.00 in0.0 mm 0.00 in0.0 mm 0.53 in13.5 mm
08:35 PM 66.6°F19.2°C 57.2°F14.0°C 71% 4.9 mph S7.9 kmh S 7.6 mph12.2 kmh 29.27 in991.2 mb 0.00 in0.0 mm 0.00 in0.0 mm 0.53 in13.5 mm
08:40 PM 66.4°F19.1°C 57.2°F14.0°C 71% 6.2 mph S10.0 kmh S 14.5 mph23.3 kmh 29.27 in991.2 mb 0.00 in0.0 mm 0.00 in0.0 mm 0.53 in13.5 mm
08:45 PM 66.2°F19.0°C 57.2°F14.0°C 72% 8.1 mph S13.0 kmh S 14.5 mph23.3 kmh 29.27 in991.2 mb 0.00 in0.0 mm 0.00 in0.0 mm 0.53 in13.5 mm
08:50 PM 66.0°F18.9°C 57.2°F14.0°C 73% 7.9 mph S12.7 kmh S 12.1 mph19.5 kmh 29.27 in991.2 mb 0.00 in0.0 mm 0.00 in0.0 mm 0.53 in13.5 mm
08:55 PM 66.0°F18.9°C 57.2°F14.0°C 74% 6.6 mph S10.6 kmh S 9.4 mph15.1 kmh 29.27 in991.2 mb 0.00 in0.0 mm 0.00 in0.0 mm 0.53 in13.5 mm
09:00 PM 65.8°F18.8°C 57.2°F14.0°C 74% 4.9 mph S7.9 kmh S 7.8 mph12.6 kmh 29.27 in991.2 mb 0.00 in0.0 mm 0.00 in0.0 mm 0.53 in13.5 mm
09:05 PM 65.7°F18.7°C 57.2°F14.0°C 74% 4.8 mph S7.7 kmh S 9.4 mph15.1 kmh 29.27 in991.2 mb 0.00 in0.0 mm 0.00 in0.0 mm 0.53 in13.5 mm
09:10 PM 65.5°F18.6°C 57.2°F14.0°C 73% 6.4 mph S10.3 kmh S 14.3 mph23.0 kmh 29.27 in991.2 mb 0.00 in0.0 mm 0.00 in0.0 mm 0.53 in13.5 mm
09:15 PM 65.3°F18.5°C 57.2°F14.0°C 73% 7.3 mph S11.7 kmh S 14.3 mph23.0 kmh 29.27 in991.2 mb 0.00 in0.0 mm 0.00 in0.0 mm 0.53 in13.5 mm
09:20 PM 65.3°F18.5°C 57.2°F14.0°C 74% 6.6 mph S10.6 kmh S 11.0 mph17.7 kmh 29.27 in991.2 mb 0.00 in0.0 mm 0.00 in0.0 mm 0.53 in13.5 mm
09:25 PM 65.1°F18.4°C 55.4°F13.0°C 73% 5.7 mph S9.2 kmh S 11.0 mph17.7 kmh 29.27 in991.2 mb 0.00 in0.0 mm 0.00 in0.0 mm 0.53 in13.5 mm
09:30 PM 64.9°F18.3°C 57.2°F14.0°C 74% 4.7 mph S7.6 kmh S 11.0 mph17.7 kmh 29.27 in991.2 mb 0.00 in0.0 mm 0.00 in0.0 mm 0.53 in13.5 mm
09:35 PM 64.8°F18.2°C 57.2°F14.0°C 74% 5.0 mph S8.0 kmh S 10.5 mph16.9 kmh 29.27 in991.2 mb 0.00 in0.0 mm 0.00 in0.0 mm 0.53 in13.5 mm
09:40 PM 64.8°F18.2°C 57.2°F14.0°C 74% 7.6 mph S12.2 kmh S 12.5 mph20.1 kmh 29.27 in991.2 mb 0.00 in0.0 mm 0.00 in0.0 mm 0.53 in13.5 mm
09:45 PM 64.6°F18.1°C 55.4°F13.0°C 74% 8.6 mph S13.8 kmh S 12.5 mph20.1 kmh 29.27 in991.2 mb 0.00 in0.0 mm 0.00 in0.0 mm 0.53 in13.5 mm
09:50 PM 64.6°F18.1°C 57.2°F14.0°C 75% 6.4 mph S10.3 kmh S 10.7 mph17.2 kmh 29.27 in991.2 mb 0.00 in0.0 mm 0.00 in0.0 mm 0.53 in13.5 mm
09:55 PM 64.4°F18.0°C 55.4°F13.0°C 74% 5.8 mph S9.3 kmh S 7.8 mph12.6 kmh 29.27 in991.2 mb 0.00 in0.0 mm 0.00 in0.0 mm 0.53 in13.5 mm
10:00 PM 64.4°F18.0°C 57.2°F14.0°C 75% 5.9 mph SSE9.5 kmh SSE 7.8 mph12.6 kmh 29.27 in991.2 mb 0.00 in0.0 mm 0.00 in0.0 mm 0.53 in13.5 mm
10:05 PM 64.4°F18.0°C 57.2°F14.0°C 75% 6.4 mph S10.3 kmh S 8.7 mph14.0 kmh 29.27 in991.2 mb 0.00 in0.0 mm 0.00 in0.0 mm 0.53 in13.5 mm
10:10 PM 64.4°F18.0°C 57.2°F14.0°C 75% 7.1 mph S11.4 kmh S 12.8 mph20.6 kmh 29.27 in991.2 mb 0.00 in0.0 mm 0.00 in0.0 mm 0.53 in13.5 mm
10:15 PM 64.2°F17.9°C 57.2°F14.0°C 75% 6.3 mph S10.1 kmh S 12.8 mph20.6 kmh 29.27 in991.2 mb 0.00 in0.0 mm 0.00 in0.0 mm 0.53 in13.5 mm
10:20 PM 64.0°F17.8°C 55.4°F13.0°C 75% 6.6 mph S10.6 kmh S 11.9 mph19.2 kmh 29.27 in991.2 mb 0.00 in0.0 mm 0.00 in0.0 mm 0.53 in13.5 mm
10:25 PM 64.0°F17.8°C 55.4°F13.0°C 75% 6.3 mph S10.1 kmh S 11.9 mph19.2 kmh 29.27 in991.2 mb 0.00 in0.0 mm 0.00 in0.0 mm 0.53 in13.5 mm
10:30 PM 64.0°F17.8°C 55.4°F13.0°C 75% 6.8 mph S10.9 kmh S 11.9 mph19.2 kmh 29.27 in991.2 mb 0.00 in0.0 mm 0.00 in0.0 mm 0.53 in13.5 mm
10:35 PM 64.0°F17.8°C 55.4°F13.0°C 75% 6.2 mph S10.0 kmh S 10.5 mph16.9 kmh 29.27 in991.2 mb 0.00 in0.0 mm 0.00 in0.0 mm 0.53 in13.5 mm
10:40 PM 64.0°F17.8°C 55.4°F13.0°C 75% 6.4 mph SSE10.3 kmh SSE 10.1 mph16.3 kmh 29.27 in991.2 mb 0.00 in0.0 mm 0.00 in0.0 mm 0.53 in13.5 mm
10:45 PM 64.0°F17.8°C 55.4°F13.0°C 75% 7.6 mph S12.2 kmh S 11.4 mph18.3 kmh 29.27 in991.2 mb 0.00 in0.0 mm 0.00 in0.0 mm 0.53 in13.5 mm
10:50 PM 64.0°F17.8°C 55.4°F13.0°C 75% 8.4 mph S13.5 kmh S 11.4 mph18.3 kmh 29.27 in991.2 mb 0.00 in0.0 mm 0.00 in0.0 mm 0.53 in13.5 mm
10:55 PM 63.9°F17.7°C 55.4°F13.0°C 75% 7.5 mph S12.1 kmh S 10.1 mph16.3 kmh 29.27 in991.2 mb 0.00 in0.0 mm 0.00 in0.0 mm 0.53 in13.5 mm
11:00 PM 63.7°F17.6°C 55.4°F13.0°C 75% 7.3 mph SSE11.7 kmh SSE 9.8 mph15.8 kmh 29.27 in991.2 mb 0.00 in0.0 mm 0.00 in0.0 mm 0.48 in12.2 mm
11:05 PM 63.7°F17.6°C 55.4°F13.0°C 75% 6.7 mph S10.8 kmh S 9.8 mph15.8 kmh 29.27 in991.2 mb 0.00 in0.0 mm 0.00 in0.0 mm 0.48 in12.2 mm
11:10 PM 63.7°F17.6°C 55.4°F13.0°C 75% 6.8 mph S10.9 kmh S 10.3 mph16.6 kmh 29.27 in991.2 mb 0.00 in0.0 mm 0.00 in0.0 mm 0.48 in12.2 mm
11:15 PM 63.7°F17.6°C 55.4°F13.0°C 75% 8.5 mph SSE13.7 kmh SSE 13.9 mph22.4 kmh 29.27 in991.2 mb 0.00 in0.0 mm 0.00 in0.0 mm 0.48 in12.2 mm
11:20 PM 63.7°F17.6°C 55.4°F13.0°C 75% 9.7 mph S15.6 kmh S 17.0 mph27.4 kmh 29.27 in991.2 mb 0.00 in0.0 mm 0.00 in0.0 mm 0.48 in12.2 mm
11:25 PM 63.7°F17.6°C 55.4°F13.0°C 75% 8.9 mph S14.3 kmh S 17.0 mph27.4 kmh 29.27 in991.2 mb 0.00 in0.0 mm 0.00 in0.0 mm 0.48 in12.2 mm
11:30 PM 63.7°F17.6°C 55.4°F13.0°C 75% 7.9 mph S12.7 kmh S 17.0 mph27.4 kmh 29.27 in991.2 mb 0.00 in0.0 mm 0.00 in0.0 mm 0.48 in12.2 mm
11:35 PM 63.7°F17.6°C 55.4°F13.0°C 76% 7.5 mph S12.1 kmh S 13.4 mph21.6 kmh 29.27 in991.2 mb 0.00 in0.0 mm 0.00 in0.0 mm 0.48 in12.2 mm
11:40 PM 63.7°F17.6°C 55.4°F13.0°C 76% 9.5 mph S15.3 kmh S 15.4 mph24.8 kmh 29.24 in990.2 mb 0.00 in0.0 mm 0.00 in0.0 mm 0.48 in12.2 mm
11:45 PM 63.7°F17.6°C 55.4°F13.0°C 76% 9.8 mph SSE15.8 kmh SSE 15.4 mph24.8 kmh 29.24 in990.2 mb 0.00 in0.0 mm 0.00 in0.0 mm 0.48 in12.2 mm
11:50 PM 63.7°F17.6°C 55.4°F13.0°C 76% 7.7 mph S12.4 kmh S 13.0 mph20.9 kmh 29.24 in990.2 mb 0.00 in0.0 mm 0.00 in0.0 mm 0.48 in12.2 mm
11:55 PM 63.7°F17.6°C 55.4°F13.0°C 76% 6.1 mph S9.8 kmh S 11.0 mph17.7 kmh 29.27 in991.2 mb 0.00 in0.0 mm 0.00 in0.0 mm 0.48 in12.2 mm